createdAt,value
2023-04-05T00:00:19.652Z,75.71
2023-04-05T00:01:19.666Z,75.81
2023-04-05T00:02:19.638Z,76.23
2023-04-05T00:03:19.708Z,76.64
2023-04-05T00:04:19.683Z,77.26
2023-04-05T00:05:19.596Z,77.26
2023-04-05T00:06:26.694Z,76.85
2023-04-05T00:07:19.576Z,76.95
2023-04-05T00:08:19.634Z,76.78
2023-04-05T00:09:19.561Z,76.75
2023-04-05T00:10:19.551Z,76.89
2023-04-05T00:11:19.552Z,76.99
2023-04-05T00:12:19.537Z,77.06
2023-04-05T00:13:19.534Z,77.06
2023-04-05T00:14:19.512Z,76.85
2023-04-05T00:15:19.497Z,76.99
2023-04-05T00:16:19.539Z,76.75
2023-04-05T00:17:19.507Z,76.68
2023-04-05T00:18:19.461Z,76.99
2023-04-05T00:19:19.452Z,76.78
2023-04-05T00:20:19.438Z,76.99
2023-04-05T00:21:19.428Z,77.40
2023-04-05T00:22:19.413Z,76.99
2023-04-05T00:23:19.418Z,77.40
2023-04-05T00:24:19.395Z,77.30
2023-04-05T00:25:19.405Z,77.30
2023-04-05T00:26:19.369Z,77.30
2023-04-05T00:27:19.371Z,77.34
2023-04-05T00:28:19.354Z,77.03
2023-04-05T00:29:19.365Z,76.82
2023-04-05T00:30:19.328Z,77.23
2023-04-05T00:31:19.330Z,77.03
2023-04-05T00:32:19.360Z,76.92
2023-04-05T00:33:19.292Z,77.55
2023-04-05T00:34:19.288Z,76.92
2023-04-05T00:35:19.278Z,77.34
2023-04-05T00:36:19.272Z,77.44
2023-04-05T00:37:19.258Z,77.55
2023-04-05T00:38:19.286Z,77.65
2023-04-05T00:39:19.227Z,77.34
2023-04-05T00:40:19.225Z,77.96
2023-04-05T00:41:19.202Z,77.55
2023-04-05T00:42:19.194Z,78.06
2023-04-05T00:43:19.379Z,77.86
2023-04-05T00:44:19.172Z,77.65
2023-04-05T00:45:19.199Z,77.86
2023-04-05T00:46:19.166Z,77.96
2023-04-05T00:47:19.150Z,77.96
2023-04-05T00:48:19.233Z,77.86
2023-04-05T00:49:19.123Z,78.27
2023-04-05T00:50:19.111Z,78.38
2023-04-05T00:51:19.092Z,78.58
2023-04-05T00:52:19.087Z,78.38
2023-04-05T00:53:19.072Z,78.58
2023-04-05T00:54:19.076Z,78.48
2023-04-05T00:55:19.060Z,78.48
2023-04-05T00:56:19.038Z,79.10
2023-04-05T00:57:19.035Z,79.10
2023-04-05T00:58:19.046Z,78.38
2023-04-05T00:59:19.041Z,78.89
2023-04-05T01:00:18.991Z,78.52
2023-04-05T01:01:19.021Z,78.72
2023-04-05T01:02:18.983Z,79.14
2023-04-05T01:03:18.967Z,79.14
2023-04-05T01:04:18.978Z,79.24
2023-04-05T01:05:18.969Z,79.24
2023-04-05T01:06:18.936Z,79.28
2023-04-05T01:07:18.939Z,80.01
2023-04-05T01:08:18.958Z,79.17
2023-04-05T01:09:18.902Z,79.45
2023-04-05T01:10:18.891Z,79.97
2023-04-05T01:11:18.884Z,79.97
2023-04-05T01:12:18.866Z,80.08
2023-04-05T01:13:18.856Z,80.08
2023-04-05T01:14:18.841Z,80.11
2023-04-05T01:15:18.875Z,80.18
2023-04-05T01:16:18.913Z,80.39
2023-04-05T01:17:18.828Z,80.39
2023-04-05T01:18:18.914Z,80.39
2023-04-05T01:19:18.787Z,79.97
2023-04-05T01:20:18.786Z,80.18
2023-04-05T01:21:18.769Z,80.29
2023-04-05T01:22:18.744Z,80.32
2023-04-05T01:23:18.751Z,80.49
2023-04-05T01:24:18.725Z,80.43
2023-04-05T01:25:18.710Z,80.43
2023-04-05T01:26:18.698Z,80.22
2023-04-05T01:27:18.714Z,80.63
2023-04-05T01:28:18.730Z,80.53
2023-04-05T01:29:18.674Z,80.67
2023-04-05T01:30:18.659Z,80.57
2023-04-05T01:31:18.679Z,80.98
2023-04-05T01:32:18.649Z,81.19
2023-04-05T01:33:18.735Z,81.19
2023-04-05T01:34:18.661Z,81.09
2023-04-05T01:35:18.623Z,81.09
2023-04-05T01:36:18.609Z,81.19
2023-04-05T01:37:18.612Z,80.98
2023-04-05T01:38:18.566Z,80.98
2023-04-05T01:39:18.570Z,80.67
2023-04-05T01:40:18.549Z,80.98
2023-04-05T01:41:18.537Z,80.67
2023-04-05T01:42:18.527Z,80.57
2023-04-05T01:43:18.539Z,80.88
2023-04-05T01:44:18.513Z,80.88
2023-04-05T01:45:18.491Z,80.46
2023-04-05T01:46:18.533Z,80.46
2023-04-05T01:47:18.476Z,80.57
2023-04-05T01:48:18.521Z,80.88
2023-04-05T01:49:18.468Z,80.88
2023-04-05T01:50:18.452Z,80.67
2023-04-05T01:51:18.431Z,81.02
2023-04-05T01:52:18.431Z,80.67
2023-04-05T01:53:18.412Z,80.36
2023-04-05T01:54:18.418Z,80.77
2023-04-05T01:55:18.398Z,80.67
2023-04-05T01:56:18.369Z,80.88
2023-04-05T01:57:18.378Z,80.36
2023-04-05T01:58:18.344Z,80.46
2023-04-05T01:59:18.381Z,80.40
2023-04-05T02:00:18.343Z,80.19
2023-04-05T02:01:18.402Z,80.57
2023-04-05T02:02:18.308Z,80.98
2023-04-05T02:03:18.335Z,81.02
2023-04-05T02:04:18.284Z,80.60
2023-04-05T02:05:18.293Z,80.71
2023-04-05T02:06:18.259Z,81.23
2023-04-05T02:07:18.252Z,80.88
2023-04-05T02:08:18.274Z,81.33
2023-04-05T02:09:18.228Z,80.98
2023-04-05T02:10:18.237Z,81.02
2023-04-05T02:11:18.205Z,81.09
2023-04-05T02:12:18.202Z,80.81
2023-04-05T02:13:18.202Z,80.88
2023-04-05T02:14:18.173Z,81.23
2023-04-05T02:15:18.167Z,81.12
2023-04-05T02:16:18.166Z,81.02
2023-04-05T02:17:18.151Z,81.23
2023-04-05T02:18:18.135Z,81.23
2023-04-05T02:19:18.115Z,81.12
2023-04-05T02:20:18.109Z,81.02
2023-04-05T02:21:18.131Z,81.33
2023-04-05T02:22:18.082Z,81.26
2023-04-05T02:23:18.101Z,81.47
2023-04-05T02:24:18.062Z,81.05
2023-04-05T02:25:18.049Z,81.05
2023-04-05T02:26:18.067Z,81.37
2023-04-05T02:27:18.030Z,81.26
2023-04-05T02:28:18.011Z,81.26
2023-04-05T02:29:18.012Z,81.68
2023-04-05T02:30:18.006Z,81.51
2023-04-05T02:31:18.009Z,81.72
2023-04-05T02:32:17.986Z,81.51
2023-04-05T02:33:17.961Z,80.99
2023-04-05T02:34:17.968Z,81.41
2023-04-05T02:35:17.945Z,81.82
2023-04-05T02:36:17.932Z,81.82
2023-04-05T02:37:17.957Z,81.62
2023-04-05T02:38:18.064Z,81.62
2023-04-05T02:39:17.900Z,81.51
2023-04-05T02:40:17.888Z,81.51
2023-04-05T02:41:17.891Z,81.51
2023-04-05T02:42:17.855Z,81.23
2023-04-05T02:43:17.859Z,81.20
2023-04-05T02:44:17.838Z,82.03
2023-04-05T02:45:17.861Z,81.86
2023-04-05T02:46:17.881Z,81.86
2023-04-05T02:47:17.807Z,82.17
2023-04-05T02:48:17.808Z,81.76
2023-04-05T02:49:17.795Z,81.86
2023-04-05T02:50:17.770Z,81.76
2023-04-05T02:51:17.760Z,81.86
2023-04-05T02:52:17.758Z,81.86
2023-04-05T02:53:17.768Z,82.28
2023-04-05T02:54:17.723Z,82.38
2023-04-05T02:55:17.717Z,82.48
2023-04-05T02:56:17.707Z,82.28
2023-04-05T02:57:17.716Z,82.90
2023-04-05T02:58:17.680Z,82.70
2023-04-05T02:59:17.690Z,82.59
2023-04-05T03:00:17.677Z,82.59
2023-04-05T03:01:17.724Z,83.01
2023-04-05T03:02:17.648Z,83.11
2023-04-05T03:03:17.730Z,83.32
2023-04-05T03:04:17.633Z,84.09
2023-04-05T03:05:17.601Z,83.67
2023-04-05T03:06:17.603Z,84.26
2023-04-05T03:07:17.593Z,84.09
2023-04-05T03:08:17.578Z,84.30
2023-04-05T03:09:17.579Z,83.84
2023-04-05T03:10:17.548Z,83.88
2023-04-05T03:11:17.574Z,84.50
2023-04-05T03:12:17.546Z,84.50
2023-04-05T03:13:17.522Z,83.67
2023-04-05T03:14:17.516Z,84.09
2023-04-05T03:15:17.494Z,83.88
2023-04-05T03:16:17.502Z,83.67
2023-04-05T03:17:17.493Z,84.50
2023-04-05T03:18:17.465Z,84.50
2023-04-05T03:19:17.447Z,84.50
2023-04-05T03:20:17.451Z,83.98
2023-04-05T03:21:17.501Z,84.09
2023-04-05T03:22:17.410Z,84.50
2023-04-05T03:23:17.408Z,83.88
2023-04-05T03:24:17.386Z,83.78
2023-04-05T03:25:17.440Z,84.09
2023-04-05T03:26:17.383Z,84.30
2023-04-05T03:27:17.355Z,83.78
2023-04-05T03:28:17.352Z,83.47
2023-04-05T03:29:17.346Z,82.84
2023-04-05T03:30:17.327Z,83.04
2023-04-05T03:31:19.563Z,82.94
2023-04-05T03:32:17.313Z,83.15
2023-04-05T03:33:17.298Z,83.25
2023-04-05T03:34:17.284Z,83.15
2023-04-05T03:35:17.284Z,83.25
2023-04-05T03:36:17.261Z,83.04
2023-04-05T03:37:17.262Z,83.36
2023-04-05T03:38:17.230Z,83.25
2023-04-05T03:39:17.263Z,83.36
2023-04-05T03:40:17.230Z,83.25
2023-04-05T03:41:17.258Z,83.15
2023-04-05T03:42:17.200Z,82.63
2023-04-05T03:43:17.196Z,82.53
2023-04-05T03:44:17.180Z,82.84
2023-04-05T03:45:22.063Z,82.84
2023-04-05T03:46:18.189Z,82.73
2023-04-05T03:47:17.137Z,82.63
2023-04-05T03:48:17.116Z,82.73
2023-04-05T03:49:17.125Z,82.84
2023-04-05T03:50:17.125Z,82.98
2023-04-05T03:51:17.092Z,82.14
2023-04-05T03:52:17.096Z,82.84
2023-04-05T03:53:17.066Z,82.77
2023-04-05T03:54:17.050Z,82.84
2023-04-05T03:55:17.048Z,82.56
2023-04-05T03:56:17.049Z,83.18
2023-04-05T03:57:17.066Z,83.04
2023-04-05T03:58:17.005Z,82.94
2023-04-05T03:59:17.092Z,82.56
2023-04-05T04:00:16.993Z,82.67
2023-04-05T04:01:16.974Z,82.87
2023-04-05T04:02:16.986Z,82.77
2023-04-05T04:03:16.969Z,83.08
2023-04-05T04:04:16.949Z,83.08
2023-04-05T04:05:17.165Z,83.29
2023-04-05T04:06:19.193Z,83.40
2023-04-05T04:07:16.903Z,83.40
2023-04-05T04:08:17.013Z,83.61
2023-04-05T04:09:16.883Z,83.18
2023-04-05T04:10:16.872Z,83.18
2023-04-05T04:11:16.866Z,83.61
2023-04-05T04:12:16.869Z,83.36
2023-04-05T04:13:16.859Z,83.18
2023-04-05T04:14:16.832Z,83.92
2023-04-05T04:15:16.859Z,84.23
2023-04-05T04:16:16.828Z,83.81
2023-04-05T04:17:16.804Z,84.02
2023-04-05T04:18:16.792Z,83.92
2023-04-05T04:19:16.978Z,84.12
2023-04-05T04:20:16.765Z,84.86
2023-04-05T04:21:16.758Z,84.55
2023-04-05T04:22:16.741Z,84.69
2023-04-05T04:23:16.739Z,84.86
2023-04-05T04:24:16.722Z,84.96
2023-04-05T04:25:16.726Z,84.86
2023-04-05T04:26:16.719Z,85.17
2023-04-05T04:27:16.703Z,84.75
2023-04-05T04:28:16.670Z,85.11
2023-04-05T04:29:16.684Z,84.86
2023-04-05T04:30:16.661Z,85.49
2023-04-05T04:31:16.695Z,84.96
2023-04-05T04:32:16.625Z,85.17
2023-04-05T04:33:16.712Z,84.96
2023-04-05T04:34:16.604Z,84.86
2023-04-05T04:35:16.609Z,84.89
2023-04-05T04:36:16.592Z,84.86
2023-04-05T04:37:16.575Z,84.44
2023-04-05T04:38:16.556Z,84.48
2023-04-05T04:39:16.564Z,84.69
2023-04-05T04:40:16.534Z,84.65
2023-04-05T04:41:16.531Z,84.48
2023-04-05T04:42:16.513Z,84.34
2023-04-05T04:43:16.506Z,84.58
2023-04-05T04:44:16.507Z,85.00
2023-04-05T04:45:16.501Z,85.00
2023-04-05T04:46:16.614Z,85.21
2023-04-05T04:47:16.469Z,85.00
2023-04-05T04:48:16.520Z,85.00
2023-04-05T04:49:16.444Z,85.11
2023-04-05T04:50:16.433Z,84.89
2023-04-05T04:51:16.413Z,84.89
2023-04-05T04:52:16.403Z,84.79
2023-04-05T04:53:16.395Z,85.21
2023-04-05T04:54:16.399Z,85.14
2023-04-05T04:55:16.375Z,85.21
2023-04-05T04:56:16.358Z,86.05
2023-04-05T04:57:16.361Z,85.98
2023-04-05T04:58:16.357Z,85.42
2023-04-05T04:59:16.401Z,85.88
2023-04-05T05:00:16.334Z,86.25
2023-04-05T05:01:16.328Z,86.15
2023-04-05T05:02:16.291Z,86.15
2023-04-05T05:03:16.281Z,86.05
2023-04-05T05:04:16.335Z,86.15
2023-04-05T05:05:16.273Z,86.36
2023-04-05T05:06:16.247Z,85.73
2023-04-05T05:07:16.247Z,85.83
2023-04-05T05:08:17.682Z,85.73
2023-04-05T05:09:16.231Z,85.94
2023-04-05T05:10:16.302Z,86.25
2023-04-05T05:11:16.199Z,86.05
2023-04-05T05:12:16.208Z,86.29
2023-04-05T05:13:16.175Z,86.19
2023-04-05T05:14:16.165Z,86.29
2023-04-05T05:15:16.154Z,86.08
2023-04-05T05:16:16.195Z,86.19
2023-04-05T05:17:16.193Z,86.15
2023-04-05T05:18:16.262Z,86.29
2023-04-05T05:19:16.116Z,86.08
2023-04-05T05:20:16.099Z,86.19
2023-04-05T05:21:16.100Z,86.19
2023-04-05T05:22:16.075Z,86.19
2023-04-05T05:23:16.076Z,86.29
2023-04-05T05:24:16.058Z,86.19
2023-04-05T05:25:16.046Z,86.29
2023-04-05T05:26:16.051Z,86.29
2023-04-05T05:27:16.015Z,86.02
2023-04-05T05:28:16.009Z,85.91
2023-04-05T05:29:15.997Z,86.65
2023-04-05T05:30:15.987Z,86.65
2023-04-05T05:31:16.052Z,86.71
2023-04-05T05:32:15.977Z,86.65
2023-04-05T05:33:16.110Z,86.82
2023-04-05T05:34:15.960Z,86.71
2023-04-05T05:35:15.931Z,86.51
2023-04-05T05:36:15.962Z,86.92
2023-04-05T05:37:15.912Z,86.82
2023-04-05T05:38:15.895Z,86.71
2023-04-05T05:39:15.896Z,86.77
2023-04-05T05:40:15.881Z,86.67
2023-04-05T05:41:15.861Z,86.51
2023-04-05T05:42:15.863Z,86.82
2023-04-05T05:43:15.846Z,86.46
2023-04-05T05:44:15.826Z,86.40
2023-04-05T05:45:15.844Z,86.25
2023-04-05T05:46:15.875Z,86.57
2023-04-05T05:47:15.800Z,86.57
2023-04-05T05:48:15.795Z,86.05
2023-04-05T05:49:15.798Z,85.73
2023-04-05T05:50:15.772Z,85.83
2023-04-05T05:51:15.763Z,85.83
2023-04-05T05:52:15.734Z,85.94
2023-04-05T05:53:15.748Z,85.94
2023-04-05T05:54:15.733Z,86.57
2023-04-05T05:55:15.704Z,86.67
2023-04-05T05:56:15.690Z,86.46
2023-04-05T05:57:15.679Z,86.57
2023-04-05T05:58:15.690Z,86.43
2023-04-05T05:59:15.807Z,86.53
2023-04-05T06:00:15.649Z,86.43
2023-04-05T06:01:15.633Z,86.38
2023-04-05T06:02:15.640Z,85.68
2023-04-05T06:03:15.739Z,85.96
2023-04-05T06:04:15.713Z,84.45
2023-04-05T06:05:15.621Z,83.23
2023-04-05T06:06:15.589Z,82.01
2023-04-05T06:07:22.706Z,81.04
2023-04-05T06:08:15.572Z,79.93
2023-04-05T06:09:15.576Z,78.37
2023-04-05T06:10:15.556Z,77.51
2023-04-05T06:11:15.534Z,77.20
2023-04-05T06:12:15.519Z,75.23
2023-04-05T06:13:15.521Z,75.23
2023-04-05T06:14:15.510Z,75.64
2023-04-05T06:15:15.493Z,75.54
2023-04-05T06:16:15.645Z,75.23
2023-04-05T06:17:15.455Z,75.33
2023-04-05T06:18:15.501Z,75.71
2023-04-05T06:19:15.458Z,74.32
2023-04-05T06:20:15.429Z,73.91
2023-04-05T06:21:15.436Z,73.77
2023-04-05T06:22:15.401Z,72.60
2023-04-05T06:23:15.415Z,72.15
2023-04-05T06:24:15.416Z,71.50
2023-04-05T06:25:17.077Z,71.19
2023-04-05T06:26:15.394Z,70.53
2023-04-05T06:27:15.387Z,70.40
2023-04-05T06:28:15.382Z,69.57
2023-04-05T06:29:15.328Z,69.64
2023-04-05T06:30:15.313Z,69.12
2023-04-05T06:31:15.332Z,69.09
2023-04-05T06:32:15.295Z,68.34
2023-04-05T06:33:15.274Z,68.13
2023-04-05T06:34:15.310Z,67.72
2023-04-05T06:35:15.316Z,67.72
2023-04-05T06:36:15.278Z,68.34
2023-04-05T06:37:15.266Z,68.51
2023-04-05T06:38:15.301Z,68.30
2023-04-05T06:39:15.204Z,68.07
2023-04-05T06:40:15.203Z,68.04
2023-04-05T06:41:15.186Z,67.63
2023-04-05T06:42:15.397Z,67.05
2023-04-05T06:43:15.158Z,66.12
2023-04-05T06:44:15.158Z,65.61
2023-04-05T06:45:15.142Z,65.81
2023-04-05T06:46:15.253Z,66.09
2023-04-05T06:47:15.141Z,65.78
2023-04-05T06:48:15.130Z,65.55
2023-04-05T06:49:15.120Z,65.20
2023-04-05T06:50:15.085Z,64.25
2023-04-05T06:51:15.069Z,64.12
2023-04-05T06:52:15.063Z,63.60
2023-04-05T06:53:15.080Z,63.29
2023-04-05T06:54:15.043Z,63.81
2023-04-05T06:55:15.023Z,63.50
2023-04-05T06:56:15.050Z,63.57
2023-04-05T06:57:15.013Z,63.37
2023-04-05T06:58:15.006Z,62.73
2023-04-05T06:59:15.039Z,61.87
2023-04-05T07:00:14.982Z,61.26
2023-04-05T07:01:14.998Z,60.75
2023-04-05T07:02:14.948Z,59.59
2023-04-05T07:03:15.018Z,59.89
2023-04-05T07:04:14.976Z,59.77
2023-04-05T07:05:15.209Z,59.15
2023-04-05T07:06:14.917Z,57.75
2023-04-05T07:07:14.901Z,57.10
2023-04-05T07:08:14.887Z,56.49
2023-04-05T07:09:14.901Z,56.38
2023-04-05T07:10:14.866Z,54.97
2023-04-05T07:11:14.857Z,55.66
2023-04-05T07:12:14.835Z,56.05
2023-04-05T07:13:14.818Z,54.31
2023-04-05T07:14:14.812Z,53.90
2023-04-05T07:15:14.813Z,52.36
2023-04-05T07:16:14.817Z,52.59
2023-04-05T07:17:14.815Z,53.23
2023-04-05T07:18:14.760Z,53.05
2023-04-05T07:19:14.767Z,52.76
2023-04-05T07:20:14.760Z,52.76
2023-04-05T07:21:14.736Z,53.87
2023-04-05T07:22:14.724Z,53.95
2023-04-05T07:23:14.711Z,52.69
2023-04-05T07:24:14.707Z,51.46
2023-04-05T07:25:14.739Z,51.67
2023-04-05T07:26:14.706Z,50.97
2023-04-05T07:27:14.658Z,51.07
2023-04-05T07:28:14.652Z,51.59
2023-04-05T07:29:14.643Z,50.77
2023-04-05T07:30:14.649Z,52.12
2023-04-05T07:31:14.634Z,52.41
2023-04-05T07:32:14.988Z,53.03
2023-04-05T07:33:14.692Z,52.72
2023-04-05T07:34:14.598Z,52.02
2023-04-05T07:35:14.579Z,52.66
2023-04-05T07:36:14.579Z,54.10
2023-04-05T07:37:14.556Z,54.64
2023-04-05T07:38:14.558Z,55.36
2023-04-05T07:39:14.547Z,54.64
2023-04-05T07:40:14.534Z,54.00
2023-04-05T07:41:14.521Z,53.41
2023-04-05T07:42:14.508Z,54.23
2023-04-05T07:43:14.499Z,54.43
2023-04-05T07:44:14.487Z,54.59
2023-04-05T07:45:14.468Z,55.36
2023-04-05T07:46:14.508Z,55.98
2023-04-05T07:47:14.443Z,56.38
2023-04-05T07:48:14.462Z,56.38
2023-04-05T07:49:14.419Z,56.87
2023-04-05T07:50:14.417Z,56.13
2023-04-05T07:51:14.412Z,57.13
2023-04-05T07:52:14.386Z,55.59
2023-04-05T07:53:14.368Z,54.56
2023-04-05T07:54:14.384Z,54.56
2023-04-05T07:55:14.372Z,55.79
2023-04-05T07:56:14.353Z,56.41
2023-04-05T07:57:14.344Z,54.97
2023-04-05T07:58:14.310Z,54.15
2023-04-05T07:59:15.126Z,55.90
2023-04-05T08:00:14.332Z,55.38
2023-04-05T08:01:14.282Z,54.74
2023-04-05T08:02:15.057Z,54.77
2023-04-05T08:03:14.349Z,55.38
2023-04-05T08:04:14.286Z,54.85
2023-04-05T08:05:14.269Z,54.43
2023-04-05T08:06:14.227Z,54.74
2023-04-05T08:07:14.212Z,54.30
2023-04-05T08:08:14.213Z,54.61
2023-04-05T08:09:14.185Z,54.00
2023-04-05T08:10:14.185Z,53.97
2023-04-05T08:11:14.182Z,54.10
2023-04-05T08:12:14.175Z,54.82
2023-04-05T08:13:14.178Z,53.38
2023-04-05T08:14:14.134Z,54.49
2023-04-05T08:15:14.130Z,52.36
2023-04-05T08:16:14.162Z,52.46
2023-04-05T08:17:14.109Z,53.49
2023-04-05T08:18:14.100Z,55.74
2023-04-05T08:19:15.634Z,55.33
2023-04-05T08:20:14.102Z,52.12
2023-04-05T08:21:14.065Z,54.08
2023-04-05T08:22:14.042Z,52.64
2023-04-05T08:23:14.033Z,51.41
2023-04-05T08:24:14.027Z,51.31
2023-04-05T08:25:14.010Z,51.90
2023-04-05T08:26:13.996Z,53.03
2023-04-05T08:27:13.994Z,52.41
2023-04-05T08:28:13.975Z,54.02
2023-04-05T08:29:13.984Z,52.69
2023-04-05T08:30:13.958Z,50.95
2023-04-05T08:31:14.093Z,50.95
2023-04-05T08:32:13.987Z,52.05
2023-04-05T08:33:13.948Z,51.95
2023-04-05T08:34:13.909Z,51.34
2023-04-05T08:35:13.897Z,51.23
2023-04-05T08:36:13.907Z,50.52
2023-04-05T08:37:13.870Z,49.39
2023-04-05T08:38:13.869Z,48.06
2023-04-05T08:39:13.855Z,47.85
2023-04-05T08:40:13.843Z,47.85
2023-04-05T08:41:13.834Z,48.16
2023-04-05T08:42:13.836Z,49.26
2023-04-05T08:43:13.802Z,52.44
2023-04-05T08:44:13.790Z,50.49
2023-04-05T08:45:13.820Z,50.09
2023-04-05T08:46:13.798Z,47.55
2023-04-05T08:47:13.762Z,48.98
2023-04-05T08:48:13.786Z,50.70
2023-04-05T08:49:13.737Z,50.70
2023-04-05T08:50:13.724Z,50.78
2023-04-05T08:51:13.756Z,49.55
2023-04-05T08:52:13.707Z,46.99
2023-04-05T08:53:13.695Z,48.73
2023-04-05T08:54:13.696Z,46.99
2023-04-05T08:55:13.681Z,46.07
2023-04-05T08:56:13.670Z,47.48
2023-04-05T08:57:13.647Z,48.60
2023-04-05T08:58:13.641Z,49.52
2023-04-05T08:59:13.644Z,49.19
2023-04-05T09:00:13.626Z,48.19
2023-04-05T09:01:13.657Z,48.60
2023-04-05T09:02:13.611Z,49.63
2023-04-05T09:03:13.693Z,48.19
2023-04-05T09:04:13.578Z,47.50
2023-04-05T09:05:13.576Z,48.42
2023-04-05T09:06:13.551Z,48.63
2023-04-05T09:07:13.555Z,49.75
2023-04-05T09:08:13.530Z,49.04
2023-04-05T09:09:13.515Z,49.73
2023-04-05T09:10:13.539Z,48.19
2023-04-05T09:11:13.500Z,47.15
2023-04-05T09:12:13.485Z,48.58
2023-04-05T09:13:13.470Z,48.89
2023-04-05T09:14:13.462Z,48.38
2023-04-05T09:15:13.455Z,47.35
2023-04-05T09:16:13.464Z,47.13
2023-04-05T09:17:13.473Z,50.30
2023-04-05T09:18:25.572Z,50.48
2023-04-05T09:19:14.426Z,47.31
2023-04-05T09:20:13.396Z,47.61
2023-04-05T09:21:13.391Z,47.74
2023-04-05T09:22:13.369Z,46.19
2023-04-05T09:23:13.413Z,44.65
2023-04-05T09:24:13.345Z,46.78
2023-04-05T09:25:13.338Z,45.96
2023-04-05T09:26:13.372Z,46.88
2023-04-05T09:27:13.315Z,47.29
2023-04-05T09:28:13.305Z,45.86
2023-04-05T09:29:13.293Z,44.94
2023-04-05T09:30:13.285Z,44.63
2023-04-05T09:31:13.288Z,46.59
2023-04-05T09:32:13.290Z,45.98
2023-04-05T09:33:13.346Z,47.52
2023-04-05T09:34:13.243Z,41.69
2023-04-05T09:35:13.221Z,41.89
2023-04-05T09:36:13.263Z,42.73
2023-04-05T09:37:13.210Z,43.43
2023-04-05T09:38:13.198Z,44.12
2023-04-05T09:39:13.186Z,46.06
2023-04-05T09:40:13.164Z,44.71
2023-04-05T09:41:13.168Z,43.49
2023-04-05T09:42:13.232Z,44.90
2023-04-05T09:43:13.141Z,43.57
2023-04-05T09:44:13.116Z,42.96
2023-04-05T09:45:13.120Z,43.47
2023-04-05T09:46:13.125Z,44.49
2023-04-05T09:47:13.087Z,45.22
2023-04-05T09:48:13.104Z,43.51
2023-04-05T09:49:13.091Z,43.30
2023-04-05T09:50:13.078Z,44.85
2023-04-05T09:51:13.295Z,45.88
2023-04-05T09:52:13.041Z,44.65
2023-04-05T09:53:13.022Z,44.76
2023-04-05T09:54:13.003Z,45.17
2023-04-05T09:55:13.002Z,43.91
2023-04-05T09:56:12.989Z,43.08
2023-04-05T09:57:12.986Z,43.49
2023-04-05T09:58:13.006Z,43.57
2023-04-05T09:59:12.993Z,43.04
2023-04-05T10:00:12.959Z,44.26
2023-04-05T10:01:17.316Z,45.06
2023-04-05T10:02:13.007Z,43.43
2023-04-05T10:03:12.997Z,39.65
2023-04-05T10:04:12.968Z,41.20
2023-04-05T10:05:12.922Z,41.00
2023-04-05T10:06:12.861Z,43.55
2023-04-05T10:07:12.898Z,43.65
2023-04-05T10:08:12.892Z,43.85
2023-04-05T10:09:12.890Z,45.69
2023-04-05T10:10:13.008Z,43.75
2023-04-05T10:11:12.809Z,41.10
2023-04-05T10:12:12.802Z,44.34
2023-04-05T10:13:12.789Z,43.04
2023-04-05T10:14:12.780Z,42.85
2023-04-05T10:15:12.762Z,40.41
2023-04-05T10:16:12.824Z,42.14
2023-04-05T10:17:12.739Z,41.22
2023-04-05T10:18:12.783Z,40.28
2023-04-05T10:19:13.022Z,40.80
2023-04-05T10:20:12.711Z,39.06
2023-04-05T10:21:12.742Z,37.96
2023-04-05T10:22:12.683Z,38.37
2023-04-05T10:23:12.676Z,40.92
2023-04-05T10:24:12.670Z,39.69
2023-04-05T10:25:12.686Z,39.49
2023-04-05T10:26:12.640Z,38.98
2023-04-05T10:27:12.634Z,39.79
2023-04-05T10:28:12.620Z,41.02
2023-04-05T10:29:12.626Z,40.28
2023-04-05T10:30:12.611Z,41.00
2023-04-05T10:31:13.269Z,41.69
2023-04-05T10:32:12.592Z,40.57
2023-04-05T10:33:12.670Z,38.74
2023-04-05T10:34:12.551Z,39.35
2023-04-05T10:35:12.538Z,41.59
2023-04-05T10:36:12.558Z,41.19
2023-04-05T10:37:12.536Z,42.00
2023-04-05T10:38:12.519Z,43.32
2023-04-05T10:39:12.488Z,42.90
2023-04-05T10:40:12.520Z,40.37
2023-04-05T10:41:12.476Z,41.59
2023-04-05T10:42:12.524Z,41.10
2023-04-05T10:43:12.443Z,41.10
2023-04-05T10:44:25.015Z,42.45
2023-04-05T10:45:13.421Z,42.83
2023-04-05T10:46:12.490Z,40.90
2023-04-05T10:47:12.397Z,40.78
2023-04-05T10:48:12.421Z,42.30
2023-04-05T10:49:12.384Z,41.88
2023-04-05T10:50:12.434Z,41.16
2023-04-05T10:51:12.418Z,43.18
2023-04-05T10:52:12.355Z,41.75
2023-04-05T10:53:12.379Z,40.33
2023-04-05T10:54:12.371Z,40.53
2023-04-05T10:55:12.366Z,40.74
2023-04-05T10:56:12.326Z,40.43
2023-04-05T10:57:12.309Z,41.66
2023-04-05T10:58:12.278Z,42.06
2023-04-05T10:59:12.350Z,42.27
2023-04-05T11:00:12.242Z,42.77
2023-04-05T11:01:12.294Z,41.98
2023-04-05T11:02:12.248Z,38.53
2023-04-05T11:03:12.349Z,38.98
2023-04-05T11:04:12.370Z,39.71
2023-04-05T11:05:12.206Z,41.73
2023-04-05T11:06:12.183Z,40.51
2023-04-05T11:07:12.172Z,41.33
2023-04-05T11:08:12.168Z,41.42
2023-04-05T11:09:12.171Z,41.61
2023-04-05T11:10:12.134Z,43.12
2023-04-05T11:11:12.130Z,41.89
2023-04-05T11:12:12.128Z,41.49
2023-04-05T11:13:12.222Z,42.53
2023-04-05T11:14:12.092Z,41.82
2023-04-05T11:15:12.087Z,42.22
2023-04-05T11:16:12.089Z,41.10
2023-04-05T11:17:12.130Z,42.02
2023-04-05T11:18:12.294Z,42.10
2023-04-05T11:19:12.039Z,41.80
2023-04-05T11:20:12.039Z,40.88
2023-04-05T11:21:12.019Z,41.06
2023-04-05T11:22:12.036Z,40.88
2023-04-05T11:23:11.995Z,41.80
2023-04-05T11:24:12.003Z,43.41
2023-04-05T11:25:12.012Z,41.98
2023-04-05T11:26:11.962Z,40.53
2023-04-05T11:27:11.953Z,40.45
2023-04-05T11:28:12.001Z,42.59
2023-04-05T11:29:11.951Z,40.76
2023-04-05T11:30:11.976Z,41.25
2023-04-05T11:31:11.933Z,41.45
2023-04-05T11:32:11.952Z,42.86
2023-04-05T11:33:11.880Z,41.45
2023-04-05T11:34:11.888Z,40.74
2023-04-05T11:35:11.861Z,42.47
2023-04-05T11:36:11.873Z,41.86
2023-04-05T11:37:11.852Z,41.27
2023-04-05T11:38:11.849Z,43.08
2023-04-05T11:39:11.816Z,41.53
2023-04-05T11:40:11.824Z,38.68
2023-04-05T11:41:11.827Z,40.64
2023-04-05T11:42:11.777Z,40.76
2023-04-05T11:43:11.790Z,37.60
2023-04-05T11:44:11.757Z,37.63
2023-04-05T11:45:11.757Z,39.39
2023-04-05T11:46:11.789Z,39.78
2023-04-05T11:47:11.895Z,40.49
2023-04-05T11:48:11.709Z,38.14
2023-04-05T11:49:11.724Z,38.55
2023-04-05T11:50:11.691Z,39.17
2023-04-05T11:51:11.685Z,40.19
2023-04-05T11:52:11.661Z,40.47
2023-04-05T11:53:11.657Z,41.49
2023-04-05T11:54:11.667Z,38.84
2023-04-05T11:55:11.630Z,39.04
2023-04-05T11:56:11.621Z,42.00
2023-04-05T11:57:11.638Z,42.39
2023-04-05T11:58:11.616Z,38.92
2023-04-05T11:59:11.673Z,39.43
2023-04-05T12:00:11.590Z,38.42
2023-04-05T12:01:11.577Z,38.01
2023-04-05T12:02:11.554Z,39.94
2023-04-05T12:03:11.640Z,40.94
2023-04-05T12:04:11.541Z,40.64
2023-04-05T12:05:11.541Z,37.58
2023-04-05T12:06:11.513Z,39.53
2023-04-05T12:07:11.500Z,37.02
2023-04-05T12:08:18.645Z,39.18
2023-04-05T12:09:11.469Z,40.81
2023-04-05T12:10:11.458Z,40.49
2023-04-05T12:11:11.481Z,41.00
2023-04-05T12:12:11.434Z,40.57
2023-04-05T12:13:11.462Z,41.49
2023-04-05T12:14:11.417Z,41.67
2023-04-05T12:15:11.409Z,41.98
2023-04-05T12:16:11.413Z,43.90
2023-04-05T12:17:11.393Z,40.52
2023-04-05T12:18:11.416Z,38.80
2023-04-05T12:19:11.359Z,39.80
2023-04-05T12:20:11.369Z,40.52
2023-04-05T12:21:11.346Z,41.61
2023-04-05T12:22:11.345Z,38.07
2023-04-05T12:23:11.476Z,39.69
2023-04-05T12:24:11.301Z,40.80
2023-04-05T12:25:11.304Z,41.21
2023-04-05T12:26:11.286Z,40.99
2023-04-05T12:27:11.275Z,38.75
2023-04-05T12:28:11.251Z,38.54
2023-04-05T12:29:11.280Z,39.87
2023-04-05T12:30:11.287Z,39.66
2023-04-05T12:31:11.228Z,41.17
2023-04-05T12:32:11.294Z,40.05
2023-04-05T12:33:11.219Z,37.61
2023-04-05T12:34:11.208Z,40.36
2023-04-05T12:35:11.181Z,38.73
2023-04-05T12:36:11.185Z,36.51
2023-04-05T12:37:11.154Z,37.23
2023-04-05T12:38:11.153Z,38.93
2023-04-05T12:39:11.141Z,39.56
2023-04-05T12:40:11.125Z,38.63
2023-04-05T12:41:11.124Z,40.37
2023-04-05T12:42:11.124Z,39.26
2023-04-05T12:43:11.112Z,41.49
2023-04-05T12:44:11.105Z,40.60
2023-04-05T12:45:12.718Z,40.21
2023-04-05T12:46:11.095Z,41.66
2023-04-05T12:47:11.055Z,40.74
2023-04-05T12:48:11.199Z,40.94
2023-04-05T12:49:11.035Z,39.72
2023-04-05T12:50:11.028Z,41.75
2023-04-05T12:51:10.998Z,43.67
2023-04-05T12:52:10.982Z,40.41